PZA weather

Palizada Airport
Palizada, Campeche, Mexico

Public forecast

Using degrees Celsius for public forecast. Weather courtesy of forecast.io.

METAR (pilot weather report)

Closest report is Ciudad del Carmen International Airport, 28.5 nm (52.8 km) NE. Retrieved 2019/06/20 19:45 UTC (52 minutes ago):

MMCE 201945Z 12015KT 7SM FEW025 33/26 A2984 RMK 8/100

TAF (pilot weather forecast)

Closest forecast is Ciudad del Carmen International Airport, 28.5 nm (52.8 km) NE. Retrieved 2019/06/20 18:00 UTC (3 hours ago):

TAF MMCE 201657Z 2018/2118 13016KT P6SM SCT020 FM202200 02012KT P6SM SKC FM210300 13016KT P6SM BKN020